Trutnov, Czech Republic
Current Conditions -  °F | °C
As of 4:00 PM on Wednesday 26 Nov 2014 (Local Time) from LKPD Reporting Station
Broken Clouds Broken Clouds  
Wind Chill: 34°   Ceiling: 2700
Heat Index: 39°   Visibility: 6mi
Dew Point: 34°   Wind: 8mph
Humidity: 81%   Direction: 90°E
Pressure: 30.18"   Gusts: NA
Location:  50.57°N, 15.9°E
Report Text: LKPD 261400Z 09007KT 9999 BKN027 04/01 Q1022 NOSIG
Loading
Personal Weather Stations






























Interactive Weather Map New forecast layout! Learn more

10-Day Weather Forecast

Advertisements
Track Severe Weather on mobile